Time;durP1;ratioP1;P1;durP2;ratioP2;P2;SDS_P1;SDS_P2;PMS_P1;PMS_P2;Temp;Humidity;BMP_temperature;BMP_pressure;BME280_temperature;BME280_humidity;BME280_pressure;Samples;Min_cycle;Max_cycle;Signal;HPM_P1;HPM_P2
2022/09/20 00:00:41;;;;;;;2.25;1.00;;;13.20;99.90;;;;;;5032328;28;20505;-43
2022/09/20 00:03:08;;;;;;;3.10;0.73;;;13.20;99.90;;;;;;5027751;28;20034;-41
2022/09/20 00:05:35;;;;;;;2.25;0.70;;;13.20;99.90;;;;;;5025077;28;20287;-42
2022/09/20 00:08:03;;;;;;;6.78;0.63;;;13.20;99.90;;;;;;5030292;28;20473;-42
2022/09/20 00:10:30;;;;;;;7.65;1.10;;;13.20;99.90;;;;;;5029957;28;20025;-40
2022/09/20 00:12:56;;;;;;;2.90;0.90;;;13.20;99.90;;;;;;5030978;28;20063;-43
2022/09/20 00:15:21;;;;;;;1.90;0.80;;;13.20;99.90;;;;;;5031399;28;20025;-41
2022/09/20 00:17:47;;;;;;;3.83;0.88;;;13.20;99.90;;;;;;5028094;28;20033;-37
2022/09/20 00:20:13;;;;;;;3.78;1.33;;;13.10;99.90;;;;;;5030151;28;20029;-43
2022/09/20 00:22:38;;;;;;;4.50;0.68;;;13.20;99.90;;;;;;5012996;28;20026;-42
2022/09/20 00:25:05;;;;;;;2.58;0.57;;;13.10;99.90;;;;;;5012904;28;20478;-41
2022/09/20 00:27:30;;;;;;;2.17;0.30;;;13.10;99.90;;;;;;5026775;28;20512;-41
2022/09/20 00:29:56;;;;;;;4.13;0.57;;;13.10;99.90;;;;;;5032679;28;20053;-47
2022/09/20 00:32:22;;;;;;;3.88;0.63;;;13.00;99.90;;;;;;5031328;28;20033;-41
2022/09/20 00:37:33;;;;;;;2.15;0.50;;;13.00;99.90;;;;;;5020058;28;20084;-65
2022/09/20 00:39:58;;;;;;;2.88;0.43;;;12.90;99.90;;;;;;5032856;28;20624;-41
2022/09/20 00:42:28;;;;;;;3.53;0.68;;;12.90;99.90;;;;;;5034645;28;20100;-40
2022/09/20 00:45:02;;;;;;;4.28;0.77;;;12.90;99.90;;;;;;5035184;28;20033;-44
2022/09/20 00:47:40;;;;;;;3.10;0.40;;;12.90;99.90;;;;;;5029599;28;20171;-41
2022/09/20 00:50:27;;;;;;;3.95;0.80;;;12.90;99.90;;;;;;5035056;28;20041;-44
2022/09/20 00:53:01;;;;;;;2.67;0.70;;;12.90;99.90;;;;;;5026066;28;20017;-71
2022/09/20 00:55:28;;;;;;;3.47;0.85;;;12.90;99.90;;;;;;5034135;28;20018;-64
2022/09/20 00:57:54;;;;;;;1.67;0.80;;;12.90;99.90;;;;;;5031538;28;20018;-42
2022/09/20 01:00:20;;;;;;;3.45;1.08;;;12.90;99.90;;;;;;5029271;28;20478;-37
2022/09/20 01:02:50;;;;;;;6.63;0.93;;;12.90;99.90;;;;;;5033270;28;20025;-47
2022/09/20 01:05:18;;;;;;;4.32;0.70;;;12.90;99.90;;;;;;5020926;28;20038;-49
2022/09/20 01:07:46;;;;;;;2.35;0.65;;;13.00;99.90;;;;;;5036216;28;20499;-60
2022/09/20 01:10:12;;;;;;;2.80;0.70;;;13.00;99.90;;;;;;5029118;28;20347;-41
2022/09/20 01:12:39;;;;;;;1.77;1.25;;;13.00;99.90;;;;;;5028612;28;20088;-36
2022/09/20 01:15:07;;;;;;;3.97;1.10;;;13.00;99.90;;;;;;5029454;28;20037;-38
2022/09/20 01:17:34;;;;;;;;;;;13.10;99.90;;;;;;5018285;28;20037;-37
2022/09/20 01:20:26;;;;;;;4.38;0.43;;;13.00;99.90;;;;;;5019582;28;19988;-36
2022/09/20 01:23:10;;;;;;;2.17;0.90;;;13.00;99.90;;;;;;5016843;28;20375;-34
2022/09/20 01:25:55;;;;;;;1.20;0.75;;;13.00;99.90;;;;;;5028654;28;20034;-34
2022/09/20 01:28:22;;;;;;;1.40;0.90;;;13.10;99.90;;;;;;5017709;28;20113;-36
2022/09/20 01:31:23;;;;;;;3.08;0.90;;;13.00;99.90;;;;;;5031219;28;20052;-32
2022/09/20 01:33:51;;;;;;;4.85;0.93;;;13.00;99.90;;;;;;5053588;28;20489;-33
2022/09/20 01:36:44;;;;;;;2.05;0.80;;;13.00;99.90;;;;;;5027009;28;20572;-39
2022/09/20 01:39:24;;;;;;;2.70;0.80;;;13.00;99.90;;;;;;5029989;28;20474;-35
2022/09/20 01:41:57;;;;;;;4.30;1.13;;;13.00;99.90;;;;;;5015932;28;20061;-35
2022/09/20 01:44:50;;;;;;;2.00;1.15;;;13.00;99.90;;;;;;5034746;28;20446;-34
2022/09/20 01:47:39;;;;;;;3.90;1.58;;;12.90;99.90;;;;;;5026901;28;20555;-32
2022/09/20 01:50:34;;;;;;;3.83;1.10;;;12.90;99.90;;;;;;5029117;28;20025;-33
2022/09/20 01:53:17;;;;;;;2.05;1.08;;;12.90;99.90;;;;;;5025380;28;20375;-42
2022/09/20 01:55:51;;;;;;;5.47;1.58;;;12.90;99.90;;;;;;5027429;28;20497;-43
2022/09/20 01:58:51;;;;;;;3.75;1.20;;;12.80;99.90;;;;;;5030883;28;20452;-40
2022/09/20 02:01:25;;;;;;;2.28;1.05;;;12.90;99.90;;;;;;5029929;28;20606;-40
2022/09/20 02:04:09;;;;;;;4.72;1.27;;;12.80;99.90;;;;;;5029428;28;20029;-43
2022/09/20 02:06:40;;;;;;;3.60;1.20;;;12.80;99.90;;;;;;5022695;28;20092;-42
2022/09/20 02:09:25;;;;;;;4.88;0.90;;;12.80;99.90;;;;;;5026593;28;20064;-43
2022/09/20 02:12:23;;;;;;;1.27;0.77;;;12.80;99.90;;;;;;5030789;28;20022;-43
2022/09/20 02:15:12;;;;;;;2.33;0.60;;;12.80;99.90;;;;;;5022438;28;20398;-41
2022/09/20 02:17:59;;;;;;;3.38;0.90;;;12.90;99.90;;;;;;5028164;28;20162;-42
2022/09/20 02:21:10;;;;;;;5.00;0.98;;;12.90;99.90;;;;;;5032011;28;20040;-42
2022/09/20 02:24:03;;;;;;;4.05;1.15;;;12.80;99.90;;;;;;5017162;28;20041;-40
2022/09/20 02:27:00;;;;;;;2.25;1.40;;;12.80;99.90;;;;;;5024363;28;20497;-33
2022/09/20 02:29:32;;;;;;;5.22;0.80;;;12.80;99.90;;;;;;5022773;28;20159;-43
2022/09/20 02:32:24;;;;;;;2.40;1.10;;;12.80;99.90;;;;;;5020730;28;20116;-36
2022/09/20 02:34:58;;;;;;;4.97;1.05;;;12.70;99.90;;;;;;5032692;28;20079;-42
2022/09/20 02:37:24;;;;;;;5.32;0.95;;;12.70;99.90;;;;;;5030425;28;20496;-42
2022/09/20 02:40:14;;;;;;;2.00;0.82;;;12.70;99.90;;;;;;5031364;28;20037;-41
2022/09/20 02:43:02;;;;;;;4.55;1.40;;;12.70;99.90;;;;;;5032302;28;20032;-42
2022/09/20 02:45:47;;;;;;;5.28;0.70;;;12.70;99.90;;;;;;5023730;28;20025;-43
2022/09/20 02:48:17;;;;;;;2.42;0.85;;;12.70;99.90;;;;;;5031962;28;20087;-37
2022/09/20 02:51:11;;;;;;;3.85;1.70;;;12.70;99.90;;;;;;5014292;28;20397;-43
2022/09/20 02:54:05;;;;;;;3.28;1.60;;;12.70;99.90;;;;;;5023928;28;20478;-35
2022/09/20 02:56:45;;;;;;;2.15;1.85;;;12.70;99.90;;;;;;5028032;28;20029;-33
2022/09/20 02:59:48;;;;;;;8.07;1.65;;;12.70;99.90;;;;;;5024760;28;20030;-33
2022/09/20 03:02:59;;;;;;;6.85;1.33;;;12.70;99.90;;;;;;5024155;28;20485;-35
2022/09/20 03:06:02;;;;;;;1.67;0.90;;;12.70;99.90;;;;;;5013411;28;20092;-36
2022/09/20 03:08:34;;;;;;;6.70;1.92;;;12.70;99.90;;;;;;5028480;28;20104;-40
2022/09/20 03:11:16;;;;;;;1.77;0.68;;;12.60;99.90;;;;;;5030873;28;20041;-35
2022/09/20 03:14:12;;;;;;;2.33;0.80;;;12.60;99.90;;;;;;5026652;28;20467;-37
2022/09/20 03:16:57;;;;;;;2.25;1.02;;;12.60;99.90;;;;;;5017770;28;20549;-39
2022/09/20 03:19:56;;;;;;;9.00;1.13;;;12.50;99.90;;;;;;5014859;28;20026;-38
2022/09/20 03:22:30;;;;;;;3.67;1.15;;;12.50;99.90;;;;;;5013509;28;20029;-33
2022/09/20 03:25:31;;;;;;;3.67;1.27;;;12.50;99.90;;;;;;5012579;28;20033;-39
2022/09/20 03:28:29;;;;;;;5.15;1.30;;;12.50;99.90;;;;;;5028613;28;20037;-36
2022/09/20 03:31:10;;;;;;;6.53;1.25;;;12.60;99.90;;;;;;5028887;28;20041;-39
2022/09/20 03:33:45;;;;;;;8.07;1.40;;;12.50;99.90;;;;;;5027534;28;20017;-39
2022/09/20 03:36:25;;;;;;;3.00;0.82;;;12.50;99.90;;;;;;5013050;28;20022;-38
2022/09/20 03:39:12;;;;;;;6.05;1.02;;;12.60;99.90;;;;;;5028186;28;20393;-32
2022/09/20 03:42:02;;;;;;;2.20;1.15;;;12.60;99.90;;;;;;5029526;28;20051;-37
2022/09/20 03:44:33;;;;;;;4.60;1.20;;;12.60;99.90;;;;;;5022051;28;20342;-36
2022/09/20 03:47:24;;;;;;;1.23;0.88;;;12.60;99.90;;;;;;5019089;28;20104;-34
2022/09/20 03:50:01;;;;;;;3.45;1.02;;;12.60;99.90;;;;;;5017239;28;20588;-31
2022/09/20 03:52:51;;;;;;;5.25;1.20;;;12.60;99.90;;;;;;5019552;28;20041;-32
2022/09/20 03:55:35;;;;;;;4.68;1.13;;;12.60;99.90;;;;;;5027687;28;20109;-34
2022/09/20 03:58:11;;;;;;;1.25;0.98;;;12.60;99.90;;;;;;5028624;28;20371;-35
2022/09/20 04:00:45;;;;;;;6.60;1.47;;;12.60;99.90;;;;;;5051375;28;20508;-36
2022/09/20 04:03:31;;;;;;;4.25;0.95;;;12.70;99.90;;;;;;5030519;28;20068;-35
2022/09/20 04:06:24;;;;;;;6.40;1.48;;;12.70;99.90;;;;;;5028342;28;20141;-37
2022/09/20 04:09:18;;;;;;;4.68;1.42;;;12.70;99.90;;;;;;5030685;28;20497;-53
2022/09/20 04:12:13;;;;;;;2.20;1.63;;;12.70;99.90;;;;;;5022401;28;20034;-34
2022/09/20 04:14:56;;;;;;;2.30;1.40;;;12.70;99.90;;;;;;5032704;28;20030;-35
2022/09/20 04:17:41;;;;;;;4.35;1.08;;;12.70;99.90;;;;;;5018139;28;20037;-34
2022/09/20 04:20:31;;;;;;;6.50;1.08;;;12.70;99.90;;;;;;5031441;28;20152;-33
2022/09/20 04:23:02;;;;;;;6.93;1.35;;;12.70;99.90;;;;;;5017448;28;20566;-35
2022/09/20 04:25:45;;;;;;;3.15;1.17;;;12.70;99.90;;;;;;5016402;28;20501;-33
2022/09/20 04:28:20;;;;;;;4.45;1.50;;;12.70;99.90;;;;;;5025194;28;20508;-34
2022/09/20 04:30:47;;;;;;;5.45;1.17;;;12.70;99.90;;;;;;5026831;28;20025;-41
2022/09/20 04:33:28;;;;;;;2.47;0.95;;;12.70;99.90;;;;;;5021431;28;20478;-47
2022/09/20 04:36:28;;;;;;;2.90;1.23;;;12.70;99.90;;;;;;5032850;28;20496;-45
2022/09/20 04:39:11;;;;;;;5.70;1.33;;;12.70;99.90;;;;;;5024507;28;20372;-40
2022/09/20 04:42:21;;;;;;;9.30;1.95;;;12.70;99.90;;;;;;5021485;28;20053;-40
2022/09/20 04:45:15;;;;;;;1.20;0.98;;;12.70;99.90;;;;;;5031014;28;20532;-41
2022/09/20 04:47:41;;;;;;;3.33;1.35;;;12.70;99.90;;;;;;5032687;28;20128;-46
2022/09/20 04:50:10;;;;;;;2.03;1.40;;;12.70;99.90;;;;;;5034855;28;20111;-43
2022/09/20 04:52:51;;;;;;;3.25;1.63;;;12.70;99.90;;;;;;5033405;28;20509;-36
2022/09/20 04:55:28;;;;;;;6.53;1.45;;;12.70;99.90;;;;;;5024471;28;20482;-36
2022/09/20 04:57:57;;;;;;;3.78;1.45;;;12.80;99.90;;;;;;5033444;28;20026;-34
2022/09/20 05:00:27;;;;;;;3.15;1.10;;;12.70;99.90;;;;;;5030644;28;20030;-33
2022/09/20 05:03:14;;;;;;;4.65;1.20;;;12.80;99.90;;;;;;5028538;28;20029;-37
2022/09/20 05:05:56;;;;;;;7.90;2.22;;;12.70;99.90;;;;;;5035704;28;20033;-34
2022/09/20 05:08:49;;;;;;;3.63;1.42;;;12.70;99.90;;;;;;5021915;28;20030;-40
2022/09/20 05:11:37;;;;;;;4.40;1.27;;;12.70;99.90;;;;;;5016755;28;20030;-35
2022/09/20 05:14:35;;;;;;;3.20;1.23;;;12.60;99.90;;;;;;5027458;28;20026;-40
2022/09/20 05:17:38;;;;;;;2.10;1.30;;;12.60;99.90;;;;;;5031420;28;20378;-32
2022/09/20 05:20:37;;;;;;;6.20;1.20;;;12.60;99.90;;;;;;5019142;28;20029;-38
2022/09/20 05:23:30;;;;;;;2.85;1.75;;;12.50;99.90;;;;;;5024776;28;20045;-36
2022/09/20 05:26:06;;;;;;;5.63;0.90;;;12.50;99.90;;;;;;5050607;28;20029;-40
2022/09/20 05:28:59;;;;;;;3.50;1.70;;;12.40;99.90;;;;;;5032391;28;20050;-43
2022/09/20 05:31:55;;;;;;;2.72;1.80;;;12.40;99.90;;;;;;5020293;28;20486;-41
2022/09/20 05:34:32;;;;;;;2.00;1.20;;;12.40;99.90;;;;;;5017605;28;20566;-41
2022/09/20 05:37:06;;;;;;;5.47;1.67;;;12.30;99.90;;;;;;5047349;28;20494;-42
2022/09/20 05:39:52;;;;;;;2.90;1.30;;;12.30;99.90;;;;;;5024093;28;20021;-40
2022/09/20 05:42:36;;;;;;;5.90;1.75;;;12.30;99.90;;;;;;5033523;28;20033;-40
2022/09/20 05:49:00;;;;;;;3.88;1.48;;;12.30;99.90;;;;;;5028268;28;20068;-41
2022/09/20 05:51:53;;;;;;;3.47;1.55;;;12.30;99.90;;;;;;5030076;28;20052;-41
2022/09/20 05:54:24;;;;;;;4.95;1.55;;;12.30;99.90;;;;;;5022705;28;20084;-47
2022/09/20 05:57:14;;;;;;;3.00;1.48;;;12.40;99.90;;;;;;5033044;28;20026;-53
2022/09/20 05:59:52;;;;;;;4.45;1.70;;;12.30;99.90;;;;;;5032788;28;20405;-50
2022/09/20 06:02:58;;;;;;;4.85;1.42;;;12.40;99.90;;;;;;5028697;28;20040;-42
2022/09/20 06:05:52;;;;;;;4.07;1.73;;;12.40;99.90;;;;;;5021756;28;20018;-43
2022/09/20 06:08:35;;;;;;;6.22;1.77;;;12.40;99.90;;;;;;5031502;28;20115;-45
2022/09/20 06:11:22;;;;;;;2.00;1.15;;;12.40;99.90;;;;;;5033952;28;20083;-39
2022/09/20 06:14:16;;;;;;;1.38;1.15;;;12.50;99.90;;;;;;5030895;28;20039;-48
2022/09/20 06:16:54;;;;;;;4.13;1.77;;;12.50;99.90;;;;;;5028100;28;20547;-45
2022/09/20 06:19:50;;;;;;;4.63;1.63;;;12.60;99.90;;;;;;5027193;28;20026;-43
2022/09/20 06:22:26;;;;;;;1.63;1.17;;;12.60;99.90;;;;;;5033557;28;20033;-44
2022/09/20 06:25:07;;;;;;;6.18;1.48;;;12.60;99.90;;;;;;5033984;28;20104;-40
2022/09/20 06:27:40;;;;;;;3.42;2.08;;;12.70;99.90;;;;;;5032076;28;20087;-43
2022/09/20 06:30:42;;;;;;;8.10;1.90;;;12.70;99.90;;;;;;5032336;28;20112;-42
2022/09/20 06:33:24;;;;;;;2.67;1.63;;;12.70;99.90;;;;;;5021357;28;20383;-38
2022/09/20 06:42:05;;;;;;;2.60;1.50;;;12.80;99.90;;;;;;5031345;28;20049;-44
2022/09/20 06:44:31;;;;;;;4.30;1.45;;;12.80;99.90;;;;;;5031803;28;20021;-43
2022/09/20 06:46:57;;;;;;;2.20;1.08;;;12.90;99.90;;;;;;5030279;28;20525;-50
2022/09/20 06:49:23;;;;;;;9.80;1.50;;;13.00;99.90;;;;;;5031072;28;20038;-47
2022/09/20 06:51:51;;;;;;;3.08;1.58;;;13.00;99.90;;;;;;5022125;28;20025;-52
2022/09/20 06:54:20;;;;;;;4.80;1.75;;;13.10;99.90;;;;;;5030587;28;20038;-40
2022/09/20 06:56:47;;;;;;;5.35;1.77;;;13.20;99.90;;;;;;5031057;28;20040;-42
2022/09/20 06:59:14;;;;;;;4.18;1.65;;;13.20;99.90;;;;;;5029051;28;20125;-45
2022/09/20 07:01:40;;;;;;;4.53;1.35;;;13.20;99.90;;;;;;5033197;28;20033;-43
2022/09/20 07:04:06;;;;;;;6.35;1.17;;;13.20;99.90;;;;;;5031269;28;20290;-43
2022/09/20 07:06:35;;;;;;;6.03;2.22;;;13.20;99.90;;;;;;5028888;28;20560;-41
2022/09/20 07:09:01;;;;;;;2.45;1.20;;;13.30;99.90;;;;;;5029458;28;20083;-46
2022/09/20 07:11:26;;;;;;;3.67;0.90;;;13.40;99.90;;;;;;5031546;28;20421;-41
2022/09/20 07:13:54;;;;;;;2.63;1.48;;;13.40;99.90;;;;;;5032714;28;20072;-40
2022/09/20 07:16:20;;;;;;;1.60;1.30;;;13.50;99.90;;;;;;5030650;28;20555;-42
2022/09/20 07:18:47;;;;;;;4.85;1.08;;;13.60;99.90;;;;;;5022884;28;20123;-43
2022/09/20 07:21:18;;;;;;;6.60;1.52;;;13.70;99.90;;;;;;5029689;28;20136;-43
2022/09/20 07:23:52;;;;;;;2.63;1.30;;;13.80;99.90;;;;;;5031057;28;20045;-43
2022/09/20 07:26:22;;;;;;;3.80;1.25;;;13.80;99.90;;;;;;5028201;28;20069;-40
2022/09/20 07:28:48;;;;;;;3.45;1.40;;;13.90;99.90;;;;;;5026436;28;20033;-44
2022/09/20 07:31:15;;;;;;;2.83;0.88;;;13.90;99.90;;;;;;5029456;28;20526;-45
2022/09/20 07:33:40;;;;;;;1.13;0.70;;;14.00;99.90;;;;;;5026297;28;20032;-42
2022/09/20 07:36:06;;;;;;;4.03;1.10;;;14.00;99.90;;;;;;5026996;28;20025;-42
2022/09/20 07:38:32;;;;;;;6.45;0.70;;;14.00;99.90;;;;;;5023658;28;20029;-41
2022/09/20 07:41:01;;;;;;;5.20;1.15;;;14.00;99.90;;;;;;5023746;28;20667;-45
2022/09/20 07:43:27;;;;;;;7.63;0.88;;;14.00;99.90;;;;;;5024242;28;20085;-43
2022/09/20 07:45:54;;;;;;;7.68;1.17;;;13.90;99.90;;;;;;5030081;28;20509;-56
2022/09/20 07:48:24;;;;;;;8.65;1.48;;;14.00;99.90;;;;;;5024454;28;20561;-42
2022/09/20 07:50:55;;;;;;;8.73;1.30;;;14.00;99.90;;;;;;5016181;28;20478;-40
2022/09/20 07:53:21;;;;;;;9.65;1.38;;;14.00;99.90;;;;;;5020194;28;20025;-34
2022/09/20 07:56:08;;;;;;;3.70;0.77;;;14.10;99.90;;;;;;5021651;28;20034;-43
2022/09/20 08:01:21;;;;;;;4.97;1.23;;;14.20;99.90;;;;;;5015816;28;20096;-42
2022/09/20 08:03:47;;;;;;;4.70;0.82;;;14.20;99.90;;;;;;5032630;28;20029;-42
2022/09/20 08:06:14;;;;;;;9.95;1.13;;;14.20;99.90;;;;;;5032577;28;20025;-43
2022/09/20 08:08:40;;;;;;;;;;;14.30;99.90;;;;;;5033336;28;20431;-42
2022/09/20 08:11:13;;;;;;;10.98;1.25;;;14.30;99.90;;;;;;5032216;28;19916;-42
2022/09/20 08:13:47;;;;;;;6.13;1.55;;;14.40;99.90;;;;;;5029687;28;20025;-44
2022/09/20 08:16:13;;;;;;;0.93;0.77;;;14.40;99.90;;;;;;5019872;28;20024;-44
2022/09/20 08:18:57;;;;;;;4.38;0.95;;;14.50;99.90;;;;;;5030755;28;20393;-40
2022/09/20 08:21:24;;;;;;;3.25;0.77;;;14.60;99.90;;;;;;5024885;28;20025;-36
2022/09/20 08:23:50;;;;;;;2.60;0.95;;;14.60;99.90;;;;;;5031557;28;20036;-32
2022/09/20 08:26:19;;;;;;;9.43;0.70;;;14.50;99.90;;;;;;5026851;28;20099;-35
2022/09/20 08:28:46;;;;;;;3.17;1.15;;;14.60;99.90;;;;;;5025266;28;20044;-36
2022/09/20 08:31:20;;;;;;;3.77;0.50;;;14.60;99.90;;;;;;5023137;28;20036;-35
2022/09/20 08:33:47;;;;;;;8.25;2.75;;;14.80;99.90;;;;;;5023984;28;20040;-41
2022/09/20 08:36:16;;;;;;;3.03;0.70;;;14.70;99.90;;;;;;5016194;28;20025;-36
2022/09/20 08:38:42;;;;;;;0.60;0.43;;;14.70;99.90;;;;;;5029835;28;20490;-34
2022/09/20 08:41:29;;;;;;;1.52;0.60;;;14.70;99.90;;;;;;5023661;28;20595;-36
2022/09/20 08:43:58;;;;;;;0.47;0.45;;;14.70;99.90;;;;;;5025340;28;20029;-33
2022/09/20 08:46:38;;;;;;;2.72;0.73;;;14.60;99.90;;;;;;5022359;28;20033;-33
2022/09/20 08:49:07;;;;;;;3.75;1.20;;;14.60;99.90;;;;;;5027850;28;20036;-32
2022/09/20 08:51:36;;;;;;;0.95;0.30;;;14.60;99.90;;;;;;5029757;28;20028;-34
2022/09/20 08:54:04;;;;;;;4.53;0.50;;;14.60;99.90;;;;;;5023875;28;20386;-38
2022/09/20 08:56:37;;;;;;;7.90;0.85;;;14.70;99.90;;;;;;5020872;28;20481;-33
2022/09/20 08:59:06;;;;;;;3.20;0.82;;;14.80;99.90;;;;;;5029643;28;20116;-31
2022/09/20 09:01:32;;;;;;;1.13;0.47;;;14.80;99.90;;;;;;5033893;28;20469;-34
2022/09/20 09:04:20;;;;;;;1.13;0.57;;;14.90;99.90;;;;;;5031504;28;20029;-31
2022/09/20 09:07:06;;;;;;;2.67;0.90;;;15.10;99.90;;;;;;5033858;28;20025;-36
2022/09/20 09:09:36;;;;;;;1.50;0.38;;;15.30;99.90;;;;;;5033698;28;20111;-37
2022/09/20 09:12:02;;;;;;;7.88;0.70;;;15.40;99.90;;;;;;5028593;28;20608;-36
2022/09/20 09:14:48;;;;;;;1.08;0.47;;;15.40;99.90;;;;;;5028398;28;20104;-39
2022/09/20 09:17:19;;;;;;;4.30;0.45;;;15.50;99.90;;;;;;5026867;28;20516;-35
2022/09/20 09:19:59;;;;;;;6.32;0.65;;;15.50;99.90;;;;;;5035531;28;20110;-36
2022/09/20 09:22:39;;;;;;;5.60;0.77;;;15.50;99.90;;;;;;5035382;28;20038;-39
2022/09/20 09:25:07;;;;;;;0.47;0.30;;;15.50;99.90;;;;;;5034564;28;20102;-41
2022/09/20 09:27:34;;;;;;;3.33;0.40;;;15.50;99.90;;;;;;5029968;28;20036;-35
2022/09/20 09:30:00;;;;;;;2.85;0.40;;;15.50;99.90;;;;;;5029937;28;20049;-34
2022/09/20 09:32:28;;;;;;;2.28;0.60;;;15.30;99.90;;;;;;5033243;28;20049;-38
2022/09/20 09:34:53;;;;;;;;;;;15.20;99.90;;;;;;5033156;28;20024;-37
2022/09/20 09:37:27;;;;;;;6.35;0.73;;;15.20;99.90;;;;;;5035201;28;19909;-32
2022/09/20 09:40:15;;;;;;;2.50;0.73;;;15.20;99.90;;;;;;5033006;28;20508;-38
2022/09/20 09:42:53;;;;;;;5.45;0.85;;;15.00;99.90;;;;;;5022239;28;20029;-33
2022/09/20 09:45:30;;;;;;;2.10;0.60;;;15.00;99.90;;;;;;5027755;28;20102;-37
2022/09/20 09:47:58;;;;;;;1.10;0.23;;;14.90;99.90;;;;;;5029567;28;20048;-34
2022/09/20 09:50:29;;;;;;;1.60;0.30;;;14.70;99.90;;;;;;5033059;28;20029;-35
2022/09/20 09:53:09;;;;;;;0.90;0.50;;;14.60;99.90;;;;;;5032169;28;20029;-33
2022/09/20 09:55:56;;;;;;;3.67;0.40;;;14.70;99.90;;;;;;5034414;28;20152;-36
2022/09/20 09:58:40;;;;;;;3.50;0.55;;;14.70;99.90;;;;;;5029859;28;20052;-37
2022/09/20 10:01:20;;;;;;;4.07;0.60;;;14.80;99.90;;;;;;5031906;28;20466;-36
2022/09/20 10:03:58;;;;;;;1.30;0.70;;;14.90;99.90;;;;;;5032961;28;20029;-40
2022/09/20 10:06:47;;;;;;;3.22;0.55;;;15.00;99.90;;;;;;5029633;28;20033;-36
2022/09/20 10:09:21;;;;;;;2.30;0.50;;;15.10;99.90;;;;;;5034506;28;20076;-38
2022/09/20 10:12:16;;;;;;;6.97;0.40;;;15.20;99.90;;;;;;5030960;28;20041;-35
2022/09/20 10:15:23;;;;;;;3.33;0.50;;;15.20;99.90;;;;;;5032359;28;20033;-35
2022/09/20 10:18:12;;;;;;;1.23;0.32;;;15.20;99.90;;;;;;4975772;28;20030;-35
2022/09/20 10:20:58;;;;;;;3.55;0.75;;;15.40;99.90;;;;;;5025246;28;20053;-37
2022/09/20 10:23:40;;;;;;;3.95;0.40;;;15.50;99.90;;;;;;5031918;28;20042;-43
2022/09/20 10:26:33;;;;;;;5.10;0.55;;;15.50;99.90;;;;;;5031187;28;20029;-38
2022/09/20 10:29:31;;;;;;;1.08;0.22;;;15.60;99.90;;;;;;5029127;28;20454;-38
2022/09/20 10:32:17;;;;;;;0.50;0.30;;;15.70;99.90;;;;;;5022995;28;20165;-35
2022/09/20 10:34:43;;;;;;;21.10;1.83;;;15.70;99.90;;;;;;5031052;28;20076;-35
2022/09/20 10:37:33;;;;;;;3.53;0.30;;;15.80;99.90;;;;;;5023796;28;20026;-36
2022/09/20 10:43:13;;;;;;;2.70;0.20;;;15.90;99.90;;;;;;5033486;28;20045;-33
2022/09/20 10:43:40;;;;;;;0.20;0.20;;;15.90;99.90;;;;;;5025150;28;20044;-35
2022/09/20 10:46:17;;;;;;;4.00;0.40;;;16.00;99.90;;;;;;5023072;28;20045;-33
2022/09/20 10:48:47;;;;;;;8.95;0.73;;;16.10;99.90;;;;;;5033685;28;20034;-35
2022/09/20 10:51:28;;;;;;;0.88;0.47;;;16.20;99.90;;;;;;5032353;28;20029;-36
2022/09/20 10:54:00;;;;;;;3.72;0.60;;;16.30;99.90;;;;;;5032035;28;20064;-39
2022/09/20 10:56:36;;;;;;;0.77;0.60;;;16.30;99.90;;;;;;5032109;28;20429;-41
2022/09/20 10:59:21;;;;;;;1.38;0.52;;;16.30;99.90;;;;;;5048236;28;20042;-37
2022/09/20 11:01:59;;;;;;;3.67;0.25;;;16.30;99.90;;;;;;5033477;28;20478;-33
2022/09/20 11:04:35;;;;;;;0.80;0.40;;;16.20;99.90;;;;;;5030753;28;20456;-35
2022/09/20 11:07:04;;;;;;;3.15;0.40;;;16.20;99.90;;;;;;5027994;28;20116;-37
2022/09/20 11:09:37;;;;;;;2.70;0.40;;;16.20;99.90;;;;;;5028457;28;20025;-36
2022/09/20 11:12:03;;;;;;;3.30;0.68;;;16.00;99.90;;;;;;5026887;28;20021;-34
2022/09/20 11:14:36;;;;;;;3.67;1.00;;;16.00;99.90;;;;;;5022985;28;20038;-38
2022/09/20 11:17:08;;;;;;;2.10;0.50;;;16.00;99.90;;;;;;5025692;28;20034;-34
2022/09/20 11:20:06;;;;;;;3.85;0.32;;;16.10;99.90;;;;;;5024357;28;20025;-34
2022/09/20 11:22:47;;;;;;;0.25;0.15;;;16.20;99.90;;;;;;5021043;28;20034;-34
2022/09/20 11:25:43;;;;;;;0.20;0.20;;;16.20;99.90;;;;;;5026845;28;20528;-34
2022/09/20 11:28:34;;;;;;;2.55;0.52;;;16.20;99.90;;;;;;5026330;28;20145;-49
2022/09/20 11:31:12;;;;;;;6.45;0.98;;;16.40;99.90;;;;;;5026755;28;20037;-34
2022/09/20 11:34:07;;;;;;;3.00;0.55;;;16.40;99.90;;;;;;5029591;28;20030;-36
2022/09/20 11:36:45;;;;;;;1.65;0.45;;;16.50;99.90;;;;;;5024288;28;20486;-35
2022/09/20 11:39:47;;;;;;;0.98;0.60;;;16.70;99.90;;;;;;5017816;28;20084;-35
2022/09/20 11:42:17;;;;;;;7.13;1.67;;;16.80;99.90;;;;;;5004525;28;20085;-37
2022/09/20 11:44:43;;;;;;;3.22;0.50;;;16.70;99.90;;;;;;4997944;28;20530;-32
2022/09/20 11:47:38;;;;;;;11.43;1.70;;;16.60;99.90;;;;;;5009055;28;20109;-35
2022/09/20 11:50:33;;;;;;;4.57;0.40;;;16.70;99.90;;;;;;4994787;28;20439;-37
2022/09/20 11:53:14;;;;;;;1.27;0.60;;;17.10;99.90;;;;;;4998366;28;20454;-32
2022/09/20 11:55:51;;;;;;;3.33;0.60;;;17.20;99.90;;;;;;5010192;28;20029;-37
2022/09/20 11:58:21;;;;;;;3.17;1.00;;;17.40;99.90;;;;;;5010055;28;20494;-34
2022/09/20 12:00:50;;;;;;;1.55;0.57;;;17.40;99.90;;;;;;5009813;28;20030;-32
2022/09/20 12:03:44;;;;;;;1.48;0.47;;;17.40;99.90;;;;;;4993645;28;20033;-37
2022/09/20 12:06:32;;;;;;;7.75;1.00;;;17.20;99.90;;;;;;5000915;28;20037;-36
2022/09/20 12:09:01;;;;;;;4.55;0.52;;;17.30;99.90;;;;;;5013173;28;20038;-36
2022/09/20 12:11:33;;;;;;;1.23;0.60;;;17.20;99.90;;;;;;5025947;28;20519;-32
2022/09/20 12:14:18;;;;;;;5.15;0.80;;;17.20;99.90;;;;;;5008495;28;20517;-39
2022/09/20 12:16:46;;;;;;;5.20;1.17;;;17.10;99.90;;;;;;5011676;28;20101;-32
2022/09/20 12:19:19;;;;;;;2.88;0.47;;;17.00;99.90;;;;;;5016662;28;20041;-32
2022/09/20 12:21:57;;;;;;;2.53;0.30;;;17.10;99.90;;;;;;5029907;28;20018;-32
2022/09/20 12:24:29;;;;;;;4.53;0.70;;;17.20;99.90;;;;;;5031699;28;20600;-33
2022/09/20 12:27:16;;;;;;;7.28;0.60;;;17.20;99.90;;;;;;5020767;28;20383;-34
2022/09/20 12:29:46;;;;;;;1.20;0.60;;;17.20;99.90;;;;;;5013336;28;20038;-33
2022/09/20 12:32:38;;;;;;;8.95;0.60;;;17.20;99.90;;;;;;5026068;28;20524;-39
2022/09/20 12:35:35;;;;;;;2.83;0.50;;;17.10;99.90;;;;;;5035590;28;20485;-32
2022/09/20 12:38:27;;;;;;;2.17;0.80;;;17.10;99.90;;;;;;5026761;28;20486;-31
2022/09/20 12:41:08;;;;;;;3.47;0.75;;;16.80;99.90;;;;;;5030828;28;20040;-34
2022/09/20 12:43:37;;;;;;;1.25;0.30;;;16.80;99.90;;;;;;5034655;28;20112;-40
2022/09/20 12:46:03;;;;;;;8.20;1.08;;;16.90;99.90;;;;;;5031530;28;20510;-44
2022/09/20 12:48:36;;;;;;;1.25;0.10;;;17.00;99.90;;;;;;5035852;28;20418;-37
2022/09/20 12:54:05;;;;;;;2.92;0.47;;;17.10;99.90;;;;;;5016493;28;20048;-39
2022/09/20 12:56:38;;;;;;;5.07;0.80;;;17.10;99.90;;;;;;5034043;28;20034;-39
2022/09/20 12:59:19;;;;;;;3.45;0.80;;;17.10;99.90;;;;;;5033122;28;20038;-37
2022/09/20 13:01:45;;;;;;;3.22;0.47;;;17.10;99.90;;;;;;5029925;28;20485;-35
2022/09/20 13:04:39;;;;;;;2.10;0.90;;;16.90;99.90;;;;;;5033831;28;20118;-36
2022/09/20 13:07:38;;;;;;;2.65;0.85;;;16.70;99.90;;;;;;5032590;28;20064;-37
2022/09/20 13:10:28;;;;;;;1.88;0.70;;;16.50;99.90;;;;;;5021853;28;20116;-37
2022/09/20 13:12:59;;;;;;;3.65;0.85;;;16.50;99.90;;;;;;5033133;28;20427;-37
2022/09/20 13:15:26;;;;;;;1.77;0.50;;;16.50;99.90;;;;;;5035805;28;20029;-41
2022/09/20 13:17:55;;;;;;;3.58;0.50;;;16.40;99.90;;;;;;5032110;28;20079;-36
2022/09/20 13:20:24;;;;;;;4.22;0.60;;;16.40;99.90;;;;;;5034435;28;20496;-34
2022/09/20 13:22:52;;;;;;;2.30;0.57;;;16.40;99.90;;;;;;5025836;28;20407;-37
2022/09/20 13:25:21;;;;;;;4.72;1.00;;;16.30;99.90;;;;;;5048223;28;20048;-36
2022/09/20 13:28:00;;;;;;;3.30;0.50;;;16.20;99.90;;;;;;5015730;28;20449;-39
2022/09/20 13:30:30;;;;;;;1.40;0.35;;;16.20;99.90;;;;;;5020694;28;20053;-33
2022/09/20 13:32:57;;;;;;;2.47;0.80;;;16.10;99.90;;;;;;5028612;28;20449;-34
2022/09/20 13:35:30;;;;;;;2.75;0.40;;;16.20;99.90;;;;;;5035001;28;20024;-38
2022/09/20 13:38:08;;;;;;;0.68;0.43;;;16.20;99.90;;;;;;5035308;28;20537;-33
2022/09/20 13:40:35;;;;;;;4.03;0.30;;;16.20;99.90;;;;;;5035075;28;20528;-32
2022/09/20 13:43:05;;;;;;;0.98;0.30;;;16.30;99.90;;;;;;5034557;28;20025;-36
2022/09/20 13:45:32;;;;;;;0.50;0.30;;;16.30;99.90;;;;;;5035441;28;20025;-39
2022/09/20 13:48:00;;;;;;;1.43;0.73;;;16.30;99.90;;;;;;5036419;28;20033;-36
2022/09/20 13:50:25;;;;;;;;;;;16.30;99.90;;;;;;5033943;28;20496;-31
2022/09/20 13:53:04;;;;;;;2.40;0.30;;;16.30;99.90;;;;;;5034858;28;19905;-41
2022/09/20 13:55:32;;;;;;;6.80;0.95;;;16.40;99.90;;;;;;5027396;28;20589;-35
2022/09/20 13:58:06;;;;;;;5.78;0.85;;;16.40;99.90;;;;;;5015309;28;20478;-35
2022/09/20 14:00:33;;;;;;;1.17;0.40;;;16.50;99.90;;;;;;5041424;28;20528;-44
2022/09/20 14:02:59;;;;;;;1.77;0.52;;;16.50;99.90;;;;;;5034957;28;20057;-33